Time;durP1;ratioP1;P1;durP2;ratioP2;P2;SDS_P1;SDS_P2;PMS_P1;PMS_P2;Temp;Humidity;BMP_temperature;BMP_pressure;BME280_temperature;BME280_humidity;BME280_pressure;Samples;Min_cycle;Max_cycle;Signal;HPM_P1;HPM_P2
2023/07/19 05:03:44;;;;;;;12.07;5.75;;;19.00;99.90;;;;;;4925804;29;20040;-71
2023/07/19 05:06:09;;;;;;;11.52;5.93;;;19.00;99.90;;;;;;4943163;29;20042;-74
2023/07/19 05:08:37;;;;;;;11.27;5.70;;;19.10;99.90;;;;;;4927663;29;20024;-74
2023/07/19 05:11:03;;;;;;;12.40;6.33;;;19.20;99.90;;;;;;4927739;29;20131;-74
2023/07/19 05:13:29;;;;;;;11.70;6.03;;;19.30;99.90;;;;;;4944025;29;20035;-74
2023/07/19 05:15:56;;;;;;;12.82;6.10;;;19.40;99.90;;;;;;4929126;29;20028;-74
2023/07/19 05:18:22;;;;;;;11.70;6.63;;;19.40;99.90;;;;;;4928996;29;20206;-73
2023/07/19 05:20:48;;;;;;;13.00;6.57;;;19.50;99.90;;;;;;4928403;29;20040;-73
2023/07/19 05:23:14;;;;;;;10.05;6.75;;;19.60;99.90;;;;;;4924147;29;20030;-74
2023/07/19 05:25:40;;;;;;;14.25;7.95;;;19.70;99.90;;;;;;4924892;29;20298;-73
2023/07/19 05:28:06;;;;;;;12.82;7.07;;;19.80;99.90;;;;;;4923970;29;20029;-74
2023/07/19 05:30:32;;;;;;;12.70;6.75;;;19.90;99.90;;;;;;4910321;29;20032;-73
2023/07/19 05:32:57;;;;;;;12.93;7.25;;;20.00;99.90;;;;;;4909590;29;20033;-73
2023/07/19 05:35:23;;;;;;;15.18;7.22;;;20.00;99.90;;;;;;4908741;29;20044;-73
2023/07/19 05:37:49;;;;;;;11.73;5.80;;;20.10;99.90;;;;;;4909890;29;20028;-72
2023/07/19 05:40:17;;;;;;;12.23;5.88;;;20.20;99.90;;;;;;4909739;29;20032;-75
2023/07/19 05:42:42;;;;;;;11.55;6.25;;;20.30;99.90;;;;;;4923849;29;20103;-76
2023/07/19 05:45:08;;;;;;;10.82;6.10;;;20.30;99.90;;;;;;4927461;29;20317;-74
2023/07/19 05:47:34;;;;;;;15.88;7.75;;;20.40;99.90;;;;;;4943223;29;20048;-72
2023/07/19 05:50:01;;;;;;;13.60;6.97;;;20.50;99.90;;;;;;4927948;29;20095;-73
2023/07/19 05:52:28;;;;;;;12.25;7.55;;;20.60;99.90;;;;;;4928359;29;20040;-74
2023/07/19 05:54:54;;;;;;;13.15;7.05;;;20.70;99.90;;;;;;4928536;29;20198;-75
2023/07/19 05:57:20;;;;;;;17.55;8.10;;;20.80;99.90;;;;;;4942618;29;20028;-73
2023/07/19 05:59:46;;;;;;;13.65;7.63;;;20.90;99.90;;;;;;4927646;29;20024;-73
2023/07/19 06:02:12;;;;;;;13.23;6.90;;;20.90;99.90;;;;;;4919269;29;20055;-74
2023/07/19 06:04:38;;;;;;;14.07;6.88;;;21.00;99.90;;;;;;4908190;29;20341;-74
2023/07/19 06:07:04;;;;;;;14.25;6.78;;;21.10;99.90;;;;;;4904242;29;20043;-73
2023/07/19 06:09:30;;;;;;;9.25;6.10;;;21.20;99.90;;;;;;4916463;29;20024;-73
2023/07/19 06:11:57;;;;;;;16.73;7.05;;;21.30;99.90;;;;;;4907921;29;20040;-73
2023/07/19 06:14:26;;;;;;;15.05;7.15;;;21.40;99.90;;;;;;4907617;29;20048;-74
2023/07/19 06:16:51;;;;;;;16.55;6.88;;;21.60;99.90;;;;;;4899692;29;20036;-74
2023/07/19 06:19:19;;;;;;;19.88;6.38;;;21.70;99.90;;;;;;4890014;29;20037;-73
2023/07/19 06:21:45;;;;;;;15.45;6.90;;;21.70;99.90;;;;;;4890486;29;20033;-73
2023/07/19 06:24:11;;;;;;;13.05;6.10;;;21.90;99.90;;;;;;4889551;29;20040;-73
2023/07/19 06:26:36;;;;;;;9.77;5.57;;;22.10;99.90;;;;;;4890769;29;20037;-76
2023/07/19 06:29:02;;;;;;;14.00;5.72;;;22.10;99.90;;;;;;4891476;29;20024;-73
2023/07/19 06:31:28;;;;;;;15.85;6.53;;;22.20;99.90;;;;;;4902188;29;20215;-73
2023/07/19 06:33:53;;;;;;;12.63;6.03;;;22.40;99.90;;;;;;4898706;29;20020;-74
2023/07/19 06:36:19;;;;;;;12.63;5.80;;;22.40;99.90;;;;;;4900134;29;20017;-74
2023/07/19 06:38:45;;;;;;;16.27;6.35;;;22.50;99.90;;;;;;4908693;29;20080;-74
2023/07/19 06:41:10;;;;;;;11.00;5.43;;;22.60;99.90;;;;;;4905355;29;20029;-75
2023/07/19 06:43:36;;;;;;;13.00;5.43;;;22.70;99.90;;;;;;4908087;29;20044;-73
2023/07/19 06:46:02;;;;;;;14.07;6.18;;;22.80;99.90;;;;;;4907749;29;20040;-73
2023/07/19 06:48:27;;;;;;;11.32;4.93;;;22.80;99.90;;;;;;4908326;29;20032;-74
2023/07/19 06:50:53;;;;;;;13.23;5.57;;;22.90;99.90;;;;;;4908470;29;20039;-73
2023/07/19 06:53:19;;;;;;;13.23;6.18;;;22.90;99.90;;;;;;4907870;29;20041;-73
2023/07/19 06:55:45;;;;;;;11.82;5.60;;;23.10;99.90;;;;;;4907515;29;20069;-73
2023/07/19 06:58:11;;;;;;;16.55;6.53;;;23.20;99.90;;;;;;4908082;29;20028;-74
2023/07/19 07:00:37;;;;;;;10.70;5.43;;;23.30;99.90;;;;;;4906815;29;20036;-74
2023/07/19 07:03:03;;;;;;;10.18;5.00;;;23.20;99.90;;;;;;4901775;29;20071;-72
2023/07/19 07:05:29;;;;;;;9.77;4.30;;;23.20;99.90;;;;;;4907792;29;20314;-74
2023/07/19 07:07:55;;;;;;;11.20;4.88;;;23.30;99.90;;;;;;4908244;29;20032;-75
2023/07/19 07:10:20;;;;;;;10.20;5.30;;;23.30;99.90;;;;;;4907596;29;20430;-75
2023/07/19 07:12:46;;;;;;;9.25;4.63;;;23.40;99.90;;;;;;4906888;29;20032;-74
2023/07/19 07:15:12;;;;;;;11.60;4.32;;;23.50;99.90;;;;;;4907678;29;20100;-73
2023/07/19 07:17:38;;;;;;;13.75;4.57;;;23.60;99.90;;;;;;4908113;29;20036;-72
2023/07/19 07:20:06;;;;;;;6.97;3.97;;;23.80;99.70;;;;;;4907742;29;20039;-73
2023/07/19 07:22:32;;;;;;;11.00;4.05;;;23.80;99.50;;;;;;4908599;29;20067;-73
2023/07/19 07:24:59;;;;;;;7.75;3.97;;;24.00;98.80;;;;;;4907765;29;20098;-73
2023/07/19 07:27:27;;;;;;;7.78;4.07;;;24.10;98.50;;;;;;4907461;29;20201;-72
2023/07/19 07:29:52;;;;;;;10.40;4.25;;;24.00;98.00;;;;;;4906741;29;20039;-74
2023/07/19 07:32:18;;;;;;;7.38;4.10;;;24.10;98.00;;;;;;4907194;29;20040;-72
2023/07/19 07:34:44;;;;;;;8.95;4.05;;;24.30;97.70;;;;;;4907963;29;20036;-72
2023/07/19 07:37:10;;;;;;;11.43;7.68;;;24.50;96.70;;;;;;4892530;29;20040;-73
2023/07/19 07:39:35;;;;;;;10.45;6.28;;;24.70;96.40;;;;;;4907639;29;20080;-72
2023/07/19 07:42:01;;;;;;;9.30;4.75;;;25.00;95.10;;;;;;4907964;29;20032;-72
2023/07/19 07:44:27;;;;;;;7.13;3.50;;;25.20;94.40;;;;;;4907123;29;20033;-72
2023/07/19 07:46:53;;;;;;;13.63;3.83;;;25.30;93.70;;;;;;4907863;29;20032;-72
2023/07/19 07:49:18;;;;;;;8.40;3.92;;;25.30;93.30;;;;;;4906780;29;20214;-72
2023/07/19 07:51:44;;;;;;;7.50;3.75;;;25.50;92.90;;;;;;4907521;29;20076;-71
2023/07/19 07:54:10;;;;;;;6.90;3.10;;;25.60;92.50;;;;;;4905440;29;20040;-71
2023/07/19 07:56:35;;;;;;;5.25;2.63;;;25.60;90.60;;;;;;4907066;29;20024;-72
2023/07/19 07:59:02;;;;;;;4.90;1.50;;;25.70;83.40;;;;;;4907618;29;20040;-71
2023/07/19 08:01:28;;;;;;;2.92;1.83;;;26.00;78.40;;;;;;4905880;29;20254;-71
2023/07/19 08:03:53;;;;;;;4.60;1.60;;;26.10;82.10;;;;;;4907672;29;20043;-72
2023/07/19 08:06:19;;;;;;;4.70;1.60;;;26.20;77.50;;;;;;4907245;29;20060;-72
2023/07/19 08:08:45;;;;;;;4.68;1.35;;;26.20;76.20;;;;;;4907688;29;20032;-72
2023/07/19 08:11:11;;;;;;;2.50;1.38;;;26.30;73.70;;;;;;4907303;29;20040;-72
2023/07/19 08:13:37;;;;;;;2.55;1.05;;;26.40;71.80;;;;;;4908108;29;20044;-72
2023/07/19 08:16:06;;;;;;;2.97;1.23;;;26.50;70.90;;;;;;4907868;29;20098;-73
2023/07/19 08:18:32;;;;;;;3.75;1.20;;;26.50;69.30;;;;;;4907074;29;20032;-72
2023/07/19 08:20:58;;;;;;;5.70;1.50;;;26.60;69.70;;;;;;4906275;29;20060;-74
2023/07/19 08:23:24;;;;;;;3.95;1.10;;;26.60;68.30;;;;;;4906750;29;20036;-72
2023/07/19 08:25:57;;;;;;;3.30;1.40;;;26.60;68.90;;;;;;4907191;29;20052;-73
2023/07/19 08:28:26;;;;;;;3.92;2.08;;;26.70;67.80;;;;;;4906533;29;20048;-71
2023/07/19 08:30:53;;;;;;;4.05;1.08;;;26.70;67.40;;;;;;4907489;29;20067;-73
2023/07/19 08:33:21;;;;;;;3.47;1.20;;;26.80;67.30;;;;;;4906870;29;20051;-73
2023/07/19 08:35:47;;;;;;;3.20;1.00;;;26.80;65.80;;;;;;4907098;29;20397;-70
2023/07/19 08:38:13;;;;;;;2.30;1.20;;;26.90;66.20;;;;;;4909380;29;20033;-71
2023/07/19 08:40:39;;;;;;;3.83;1.27;;;26.90;65.10;;;;;;4910857;29;20025;-71
2023/07/19 08:43:06;;;;;;;2.33;1.30;;;27.00;65.20;;;;;;4910438;29;20055;-72
2023/07/19 08:45:37;;;;;;;3.50;1.13;;;26.90;64.10;;;;;;4911002;29;20033;-71
2023/07/19 08:48:04;;;;;;;2.75;1.40;;;26.90;62.70;;;;;;4911007;29;20080;-71
2023/07/19 08:50:30;;;;;;;5.82;1.30;;;26.90;63.60;;;;;;4910597;29;20056;-71
2023/07/19 08:53:01;;;;;;;3.40;1.25;;;26.90;64.20;;;;;;4910313;29;20024;-69
2023/07/19 08:55:26;;;;;;;3.55;1.20;;;27.00;63.20;;;;;;4905659;29;20477;-70
2023/07/19 08:57:52;;;;;;;3.95;1.30;;;27.00;63.80;;;;;;4891609;29;20041;-71
2023/07/19 09:00:20;;;;;;;3.47;1.10;;;27.00;62.70;;;;;;4891119;29;20149;-71
2023/07/19 09:02:45;;;;;;;4.93;1.20;;;27.10;62.80;;;;;;4891488;29;20249;-71
2023/07/19 09:05:13;;;;;;;3.50;1.30;;;27.10;62.30;;;;;;4891162;29;20434;-72
2023/07/19 09:07:40;;;;;;;5.53;1.25;;;27.00;62.70;;;;;;4890439;29;20037;-70
2023/07/19 09:10:07;;;;;;;4.95;1.50;;;27.00;61.50;;;;;;4899263;29;20020;-70
2023/07/19 09:12:37;;;;;;;3.40;1.42;;;27.10;62.00;;;;;;4909888;29;20091;-70
2023/07/19 09:15:05;;;;;;;3.83;1.13;;;27.20;62.60;;;;;;4910360;29;20044;-72
2023/07/19 09:17:35;;;;;;;8.93;1.67;;;27.40;62.20;;;;;;4910131;29;20325;-72
2023/07/19 09:20:00;;;;;;;9.50;1.58;;;27.50;59.20;;;;;;4924729;29;20044;-71
2023/07/19 09:22:28;;;;;;;5.32;1.52;;;27.50;60.30;;;;;;4909325;29;20099;-73
2023/07/19 09:25:01;;;;;;;2.57;1.23;;;27.60;59.10;;;;;;4909460;29;20043;-72
2023/07/19 09:27:28;;;;;;;2.85;1.23;;;27.60;58.90;;;;;;4909349;29;20099;-71
2023/07/19 09:29:53;;;;;;;2.85;1.00;;;27.60;57.90;;;;;;4909955;29;20036;-69
2023/07/19 09:32:19;;;;;;;3.47;1.10;;;27.80;58.30;;;;;;4909014;29;20028;-71
2023/07/19 09:34:45;;;;;;;3.33;1.30;;;27.80;58.60;;;;;;4909870;29;20040;-71
2023/07/19 09:37:11;;;;;;;3.70;1.33;;;27.90;59.40;;;;;;4908939;29;20028;-70
2023/07/19 09:39:37;;;;;;;3.75;1.25;;;28.00;58.60;;;;;;4909915;29;20346;-73
2023/07/19 09:42:04;;;;;;;4.93;1.40;;;27.90;59.50;;;;;;4908643;29;20222;-69
2023/07/19 09:44:30;;;;;;;3.63;1.20;;;27.90;58.80;;;;;;4909547;29;20044;-72
2023/07/19 09:46:57;;;;;;;2.25;1.00;;;27.80;58.10;;;;;;4909862;29;20051;-71
2023/07/19 09:49:23;;;;;;;2.80;1.02;;;27.70;58.10;;;;;;4908724;29;20055;-70
2023/07/19 09:51:51;;;;;;;3.58;1.17;;;27.70;57.30;;;;;;4909275;29;20344;-71
2023/07/19 09:54:16;;;;;;;4.88;1.10;;;27.80;57.80;;;;;;4908886;29;20020;-71
2023/07/19 09:56:43;;;;;;;3.65;1.70;;;28.00;56.70;;;;;;4909692;29;20038;-71
2023/07/19 09:59:14;;;;;;;3.28;1.38;;;27.90;56.90;;;;;;4908885;29;20196;-71
2023/07/19 10:01:41;;;;;;;3.90;0.98;;;28.00;57.50;;;;;;4909074;29;20048;-70
2023/07/19 10:04:24;;;;;;;2.88;1.08;;;28.10;57.50;;;;;;4909225;29;20333;-72
2023/07/19 10:07:05;;;;;;;3.83;1.50;;;28.40;57.30;;;;;;4909111;29;20382;-71
2023/07/19 10:09:32;;;;;;;5.75;1.40;;;28.60;57.40;;;;;;4909157;29;20040;-69
2023/07/19 10:12:00;;;;;;;3.03;1.30;;;28.80;57.00;;;;;;4909083;29;20036;-70
2023/07/19 10:14:27;;;;;;;4.70;1.20;;;29.00;56.40;;;;;;4908534;29;20033;-69
2023/07/19 10:17:00;;;;;;;5.32;1.10;;;29.00;56.50;;;;;;4909226;29;20096;-71
2023/07/19 10:19:26;;;;;;;3.97;1.05;;;29.30;57.00;;;;;;4908476;29;20092;-70
2023/07/19 10:22:06;;;;;;;3.45;1.15;;;29.30;55.90;;;;;;4908997;29;20028;-70
2023/07/19 10:24:35;;;;;;;3.65;0.98;;;29.10;56.30;;;;;;4908742;29;20140;-71
2023/07/19 10:27:05;;;;;;;5.00;1.10;;;29.20;56.50;;;;;;4909125;29;20036;-71
2023/07/19 10:29:42;;;;;;;4.82;1.65;;;29.40;55.40;;;;;;4908854;29;20247;-70
2023/07/19 10:32:08;;;;;;;3.35;1.20;;;29.60;55.70;;;;;;4908051;29;20230;-70
2023/07/19 10:34:36;;;;;;;3.35;1.30;;;29.50;55.90;;;;;;4908951;29;20037;-70
2023/07/19 10:37:06;;;;;;;5.32;1.15;;;29.50;56.30;;;;;;4909019;29;20111;-71
2023/07/19 10:39:32;;;;;;;2.53;1.10;;;29.40;56.60;;;;;;4908871;29;20084;-70
2023/07/19 10:41:59;;;;;;;6.38;1.20;;;29.60;56.30;;;;;;4908567;29;20048;-72
2023/07/19 10:44:26;;;;;;;4.53;1.10;;;29.60;57.10;;;;;;4908052;29;20318;-71
2023/07/19 10:46:56;;;;;;;2.85;1.30;;;30.20;56.40;;;;;;4908550;29;20306;-71
2023/07/19 10:49:23;;;;;;;3.63;1.25;;;30.60;55.60;;;;;;4907992;29;20032;-71
2023/07/19 10:51:54;;;;;;;4.05;1.20;;;30.70;55.10;;;;;;4908535;29;20072;-71
2023/07/19 10:54:20;;;;;;;4.82;1.02;;;30.50;56.00;;;;;;4907713;29;20040;-72
2023/07/19 10:56:50;;;;;;;4.40;1.25;;;30.70;55.90;;;;;;4908508;29;20036;-72
2023/07/19 10:59:16;;;;;;;7.13;1.48;;;31.10;55.70;;;;;;4907537;29;20101;-72
2023/07/19 11:01:43;;;;;;;2.65;1.10;;;31.40;54.80;;;;;;4907665;29;20091;-72
2023/07/19 11:04:08;;;;;;;9.65;1.95;;;31.50;54.70;;;;;;4908082;29;20060;-76
2023/07/19 11:06:37;;;;;;;3.00;1.20;;;31.40;54.60;;;;;;4904929;29;20329;-74
2023/07/19 11:09:08;;;;;;;4.35;1.40;;;31.60;54.70;;;;;;4890201;29;20036;-70
2023/07/19 11:11:38;;;;;;;3.75;0.98;;;31.90;54.50;;;;;;4908114;29;20076;-71
2023/07/19 11:14:04;;;;;;;3.95;1.25;;;31.90;54.70;;;;;;4904930;29;20322;-71
2023/07/19 11:16:31;;;;;;;3.45;1.10;;;31.80;54.00;;;;;;4907616;29;20250;-71
2023/07/19 11:18:57;;;;;;;11.68;1.95;;;31.50;54.80;;;;;;4907925;29;20089;-71
2023/07/19 11:21:25;;;;;;;5.30;1.90;;;31.70;54.80;;;;;;4906582;29;20029;-71
2023/07/19 11:23:51;;;;;;;5.40;1.48;;;31.40;55.10;;;;;;4908014;29;20047;-70
2023/07/19 11:26:18;;;;;;;5.32;1.30;;;31.70;54.30;;;;;;4906022;29;20060;-71
2023/07/19 11:28:50;;;;;;;5.80;1.30;;;31.80;54.40;;;;;;4906748;29;20280;-70
2023/07/19 11:31:31;;;;;;;3.65;1.20;;;31.80;54.80;;;;;;4907272;29;20072;-71
2023/07/19 11:34:16;;;;;;;6.50;1.33;;;32.00;54.00;;;;;;4907707;29;20092;-71
2023/07/19 11:36:44;;;;;;;5.00;1.20;;;31.90;54.70;;;;;;4907966;29;20300;-71
2023/07/19 11:39:17;;;;;;;5.13;1.25;;;31.90;54.40;;;;;;4907186;29;20052;-70
2023/07/19 11:41:44;;;;;;;3.45;1.30;;;32.40;54.10;;;;;;4903660;29;20058;-71
2023/07/19 11:44:16;;;;;;;5.88;1.27;;;32.90;53.50;;;;;;4906635;29;20064;-71
2023/07/19 11:46:43;;;;;;;14.48;2.75;;;33.10;52.80;;;;;;4907148;29;20108;-71
2023/07/19 11:49:09;;;;;;;7.93;1.90;;;33.40;52.50;;;;;;4907088;29;20040;-71
2023/07/19 11:51:39;;;;;;;4.82;1.65;;;33.40;53.20;;;;;;4907575;29;20273;-70
2023/07/19 11:54:05;;;;;;;4.72;1.40;;;33.40;52.30;;;;;;4907411;29;20036;-70
2023/07/19 11:56:31;;;;;;;3.88;1.40;;;33.70;52.60;;;;;;4907278;29;20040;-71
2023/07/19 11:58:57;;;;;;;4.85;1.40;;;34.20;51.80;;;;;;4907616;29;20044;-70
2023/07/19 12:01:25;;;;;;;9.23;1.77;;;33.80;51.50;;;;;;4906529;29;20113;-72
2023/07/19 12:03:51;;;;;;;6.47;1.70;;;33.80;51.80;;;;;;4907474;29;20318;-70
2023/07/19 12:06:16;;;;;;;4.63;1.38;;;33.20;51.70;;;;;;4907157;29;20133;-69
2023/07/19 12:08:43;;;;;;;5.30;1.30;;;33.30;52.00;;;;;;4907728;29;20029;-73
2023/07/19 12:11:08;;;;;;;2.65;1.13;;;34.40;51.60;;;;;;4906829;29;20188;-69
2023/07/19 12:13:35;;;;;;;4.15;1.30;;;35.80;50.30;;;;;;4910502;29;20035;-69
2023/07/19 12:16:01;;;;;;;5.60;1.80;;;36.90;48.80;;;;;;4911292;29;20047;-71
2023/07/19 12:18:28;;;;;;;6.95;1.50;;;37.20;48.40;;;;;;4910940;29;20036;-71
2023/07/19 12:20:53;;;;;;;5.00;1.50;;;37.70;47.80;;;;;;4911050;29;20207;-70
2023/07/19 12:23:19;;;;;;;5.00;1.55;;;38.50;47.20;;;;;;4910294;29;20043;-70
2023/07/19 12:25:45;;;;;;;5.90;1.98;;;38.40;46.60;;;;;;4910778;29;20040;-72
2023/07/19 12:28:11;;;;;;;3.92;1.52;;;38.60;46.60;;;;;;4910421;29;20311;-70
2023/07/19 12:30:38;;;;;;;6.07;1.50;;;38.60;46.50;;;;;;4911028;29;20210;-71
2023/07/19 12:33:04;;;;;;;4.03;1.40;;;37.90;46.60;;;;;;4911123;29;20040;-70
2023/07/19 12:35:30;;;;;;;3.92;1.40;;;37.50;46.70;;;;;;4911045;29;20033;-71
2023/07/19 12:37:56;;;;;;;6.78;1.42;;;36.50;47.60;;;;;;4925526;29;20263;-72
2023/07/19 12:40:21;;;;;;;4.60;1.38;;;37.20;47.80;;;;;;4908529;29;20072;-71
2023/07/19 12:42:48;;;;;;;6.80;1.73;;;38.20;46.70;;;;;;4910732;29;20029;-72
2023/07/19 12:45:15;;;;;;;2.70;1.55;;;39.10;46.50;;;;;;4910179;29;20387;-70
2023/07/19 12:47:40;;;;;;;7.25;1.75;;;39.50;45.60;;;;;;4910876;29;20322;-73
2023/07/19 12:50:07;;;;;;;4.28;1.88;;;38.00;46.00;;;;;;4910241;29;20056;-70
2023/07/19 12:52:34;;;;;;;7.50;1.65;;;36.50;47.60;;;;;;4910679;29;20394;-71
2023/07/19 12:55:00;;;;;;;4.25;1.80;;;35.80;48.00;;;;;;4910360;29;20045;-71
2023/07/19 12:57:26;;;;;;;5.45;2.05;;;35.60;48.30;;;;;;4910243;29;20050;-71
2023/07/19 12:59:51;;;;;;;5.00;1.90;;;35.40;48.20;;;;;;4910571;29;20037;-73
2023/07/19 13:02:17;;;;;;;11.23;2.88;;;35.40;48.70;;;;;;4909614;29;20071;-71
2023/07/19 13:04:44;;;;;;;5.30;1.85;;;36.00;48.50;;;;;;4910203;29;20037;-71
2023/07/19 13:07:10;;;;;;;9.50;2.37;;;36.70;48.60;;;;;;4906968;29;20346;-72
2023/07/19 13:09:36;;;;;;;3.55;1.70;;;36.80;47.80;;;;;;4909913;29;20445;-70
2023/07/19 13:12:02;;;;;;;4.13;1.95;;;36.70;47.80;;;;;;4910106;29;20051;-71
2023/07/19 13:14:28;;;;;;;8.73;2.60;;;36.00;48.30;;;;;;4909656;29;20399;-73
2023/07/19 13:16:53;;;;;;;4.30;2.75;;;35.40;49.50;;;;;;4909770;29;20036;-71
2023/07/19 13:19:19;;;;;;;6.18;2.22;;;34.80;49.40;;;;;;4909697;29;20048;-71
2023/07/19 13:21:45;;;;;;;3.97;1.85;;;34.30;50.20;;;;;;4908975;29;20047;-70
2023/07/19 13:24:11;;;;;;;4.68;1.95;;;34.00;51.10;;;;;;4909198;29;20095;-75
2023/07/19 13:26:37;;;;;;;4.85;2.17;;;34.20;51.00;;;;;;4908600;29;20222;-73
2023/07/19 13:29:03;;;;;;;4.95;2.10;;;34.60;50.40;;;;;;4910107;29;20044;-72
2023/07/19 13:31:30;;;;;;;5.32;2.58;;;34.80;50.60;;;;;;4909676;29;20044;-71
2023/07/19 13:33:58;;;;;;;5.63;2.25;;;35.10;50.90;;;;;;4909571;29;20051;-73
2023/07/19 13:36:28;;;;;;;5.65;2.33;;;36.30;49.80;;;;;;4909273;29;20381;-73
2023/07/19 13:38:56;;;;;;;4.15;2.40;;;36.90;49.70;;;;;;4909848;29;20052;-73
2023/07/19 13:41:21;;;;;;;;;;;37.10;50.30;;;;;;4909826;29;20349;-74
2023/07/19 13:43:47;;;;;;;4.57;2.20;;;36.90;50.00;;;;;;4909804;29;19903;-73
2023/07/19 13:46:13;;;;;;;5.32;2.13;;;36.20;50.70;;;;;;4909252;29;20036;-70
2023/07/19 13:48:38;;;;;;;6.75;2.60;;;36.20;51.30;;;;;;4909889;29;20033;-71
2023/07/19 13:51:04;;;;;;;5.55;2.13;;;37.10;50.60;;;;;;4909633;29;20311;-71
2023/07/19 13:53:30;;;;;;;5.95;2.40;;;38.40;49.60;;;;;;4909246;29;20040;-71
2023/07/19 13:55:56;;;;;;;5.15;2.00;;;39.90;48.60;;;;;;4909258;29;20044;-71
2023/07/19 13:58:22;;;;;;;4.68;2.20;;;40.80;46.20;;;;;;4908755;29;20040;-70
2023/07/19 14:00:47;;;;;;;7.47;2.55;;;40.90;45.70;;;;;;4909252;29;20040;-72
2023/07/19 14:03:15;;;;;;;5.05;2.30;;;39.40;45.00;;;;;;4908672;29;20338;-72
2023/07/19 14:05:41;;;;;;;6.30;2.25;;;38.00;46.60;;;;;;4909635;29;20103;-70
2023/07/19 14:08:07;;;;;;;5.20;2.35;;;38.00;46.70;;;;;;4908756;29;20029;-72
2023/07/19 14:10:32;;;;;;;5.18;2.20;;;38.40;47.20;;;;;;4908859;29;20028;-71
2023/07/19 14:12:58;;;;;;;4.45;2.22;;;38.00;47.70;;;;;;4909357;29;20196;-71
2023/07/19 14:15:24;;;;;;;7.32;2.95;;;38.00;48.10;;;;;;4909004;29;20032;-73
2023/07/19 14:17:49;;;;;;;4.22;1.90;;;36.30;49.00;;;;;;4909034;29;20058;-73
2023/07/19 14:20:15;;;;;;;5.60;2.38;;;36.60;49.50;;;;;;4908224;29;20036;-70
2023/07/19 14:22:43;;;;;;;4.53;2.17;;;38.40;48.00;;;;;;4909284;29;20040;-70
2023/07/19 14:25:09;;;;;;;;;;;40.00;46.60;;;;;;4909164;29;20092;-72
2023/07/19 14:27:36;;;;;;;4.50;1.77;;;41.50;44.80;;;;;;4908283;29;19907;-74
2023/07/19 14:30:04;;;;;;;3.65;2.00;;;39.90;45.80;;;;;;4908890;29;20063;-72
2023/07/19 14:32:30;;;;;;;3.88;2.15;;;39.40;45.10;;;;;;4908654;29;20051;-72
2023/07/19 14:34:55;;;;;;;3.17;2.08;;;38.70;46.20;;;;;;4908085;29;20044;-73
2023/07/19 14:37:21;;;;;;;4.18;1.65;;;38.30;46.50;;;;;;4908129;29;20192;-74
2023/07/19 14:39:47;;;;;;;4.20;1.80;;;38.80;45.60;;;;;;4908715;29;20059;-72
2023/07/19 14:42:13;;;;;;;5.70;1.95;;;37.50;46.30;;;;;;4908034;29;20326;-71
2023/07/19 14:44:39;;;;;;;4.15;1.90;;;36.90;47.80;;;;;;4907568;29;20052;-71
2023/07/19 14:47:05;;;;;;;4.10;1.83;;;35.80;48.60;;;;;;4908514;29;20215;-72
2023/07/19 14:49:31;;;;;;;4.93;2.00;;;35.60;48.40;;;;;;4908646;29;20036;-73
2023/07/19 14:51:57;;;;;;;3.42;2.00;;;35.60;48.50;;;;;;4908538;29;20080;-72
2023/07/19 14:54:22;;;;;;;4.75;1.92;;;35.20;49.30;;;;;;4907906;29;20052;-71
2023/07/19 14:56:49;;;;;;;3.85;2.03;;;36.00;48.60;;;;;;4908737;29;20386;-73
2023/07/19 14:59:15;;;;;;;5.73;2.03;;;37.40;47.80;;;;;;4908150;29;20036;-73
2023/07/19 15:01:41;;;;;;;3.72;1.90;;;37.60;47.00;;;;;;4908084;29;20041;-71
2023/07/19 15:04:07;;;;;;;5.22;1.80;;;38.50;46.40;;;;;;4907795;29;20330;-72
2023/07/19 15:06:33;;;;;;;3.42;1.90;;;39.90;45.80;;;;;;4908398;29;20199;-74
2023/07/19 15:09:02;;;;;;;6.43;2.00;;;41.40;44.70;;;;;;4908042;29;20060;-74
2023/07/19 15:11:28;;;;;;;4.97;2.13;;;41.30;44.20;;;;;;4907485;29;20148;-72
2023/07/19 15:13:54;;;;;;;4.63;2.03;;;40.40;44.20;;;;;;4908060;29;20353;-74
2023/07/19 15:16:20;;;;;;;5.90;1.90;;;38.50;45.90;;;;;;4907850;29;20040;-73
2023/07/19 15:18:46;;;;;;;6.60;2.25;;;36.80;47.00;;;;;;4907695;29;20036;-73
2023/07/19 15:21:11;;;;;;;4.57;2.30;;;36.90;47.40;;;;;;4907278;29;20041;-75
2023/07/19 15:23:37;;;;;;;5.30;1.95;;;37.70;47.10;;;;;;4907812;29;20210;-72
2023/07/19 15:26:03;;;;;;;3.85;2.20;;;38.60;46.40;;;;;;4907807;29;20028;-74
2023/07/19 15:28:29;;;;;;;3.42;2.05;;;39.10;45.30;;;;;;4906544;29;20032;-73
2023/07/19 15:30:54;;;;;;;4.65;2.00;;;40.10;44.70;;;;;;4908060;29;20330;-72
2023/07/19 15:33:20;;;;;;;4.35;1.90;;;40.30;44.10;;;;;;4906940;29;20423;-73
2023/07/19 15:35:46;;;;;;;3.35;2.35;;;39.00;44.50;;;;;;4907985;29;20374;-73
2023/07/19 15:38:21;;;;;;;7.40;2.42;;;37.80;46.00;;;;;;4907313;29;20084;-74
2023/07/19 15:40:47;;;;;;;4.97;2.47;;;37.30;46.50;;;;;;4907889;29;20037;-73
2023/07/19 15:43:13;;;;;;;3.22;2.15;;;37.10;46.10;;;;;;4907096;29;20108;-71
2023/07/19 15:45:38;;;;;;;5.40;2.50;;;37.10;45.60;;;;;;4907423;29;20067;-71
2023/07/19 15:48:04;;;;;;;6.15;2.47;;;37.00;45.90;;;;;;4907800;29;20052;-74
2023/07/19 15:50:30;;;;;;;4.30;1.98;;;37.70;45.60;;;;;;4907241;29;20064;-73
2023/07/19 15:52:56;;;;;;;4.60;2.00;;;39.00;45.00;;;;;;4907638;29;20100;-74
2023/07/19 15:55:22;;;;;;;4.13;2.55;;;39.00;44.90;;;;;;4907270;29;20061;-73
2023/07/19 15:57:48;;;;;;;5.93;2.35;;;38.90;44.90;;;;;;4907462;29;20056;-72
2023/07/19 16:00:14;;;;;;;5.05;2.50;;;38.60;45.10;;;;;;4906949;29;20080;-73
2023/07/19 16:02:41;;;;;;;4.22;2.75;;;39.00;44.40;;;;;;4907344;29;20063;-71
2023/07/19 16:05:07;;;;;;;5.60;2.20;;;38.80;44.30;;;;;;4907219;29;20043;-71
2023/07/19 16:07:32;;;;;;;7.05;2.50;;;38.80;44.80;;;;;;4907661;29;20041;-75
2023/07/19 16:09:58;;;;;;;4.82;2.25;;;38.90;45.20;;;;;;4906326;29;20043;-73
2023/07/19 16:12:24;;;;;;;4.43;2.00;;;39.30;44.80;;;;;;4905799;29;20129;-75
2023/07/19 16:14:50;;;;;;;5.20;2.25;;;38.60;45.30;;;;;;4907449;29;20033;-74
2023/07/19 16:17:15;;;;;;;3.60;2.20;;;38.90;44.50;;;;;;4905674;29;20234;-72
2023/07/19 16:19:41;;;;;;;6.15;2.42;;;37.80;45.50;;;;;;4907708;29;20029;-72
2023/07/19 16:22:07;;;;;;;4.25;2.20;;;38.70;45.20;;;;;;4906034;29;20108;-71
2023/07/19 16:24:33;;;;;;;3.10;2.00;;;39.10;44.50;;;;;;4906488;29;20035;-74
2023/07/19 16:26:58;;;;;;;3.53;1.70;;;39.10;44.20;;;;;;4907327;29;20060;-72
2023/07/19 16:29:24;;;;;;;3.85;2.15;;;38.40;43.90;;;;;;4906491;29;20055;-73
2023/07/19 16:31:50;;;;;;;5.43;2.47;;;38.30;44.40;;;;;;4907619;29;20041;-72
2023/07/19 16:34:16;;;;;;;5.03;2.20;;;38.00;44.70;;;;;;4906854;29;20100;-74
2023/07/19 16:36:42;;;;;;;3.53;1.90;;;38.40;44.50;;;;;;4907395;29;20236;-76
2023/07/19 16:39:07;;;;;;;6.10;2.03;;;38.20;44.40;;;;;;4906951;29;20064;-71
2023/07/19 16:41:37;;;;;;;3.95;1.58;;;38.10;44.60;;;;;;4907545;29;20036;-73
2023/07/19 16:44:05;;;;;;;5.07;2.00;;;37.90;44.60;;;;;;4906941;29;20103;-73
2023/07/19 16:46:31;;;;;;;4.68;1.90;;;37.40;45.10;;;;;;4906329;29;20036;-73
2023/07/19 16:48:58;;;;;;;3.72;1.63;;;37.20;45.30;;;;;;4905934;29;20077;-74
2023/07/19 16:51:24;;;;;;;5.22;2.00;;;35.90;46.40;;;;;;4888462;29;20096;-75
2023/07/19 16:53:50;;;;;;;4.25;1.88;;;34.80;47.50;;;;;;4888693;29;20032;-72
2023/07/19 16:56:15;;;;;;;6.80;2.30;;;33.60;49.00;;;;;;4887819;29;20037;-75
2023/07/19 16:58:41;;;;;;;6.70;2.20;;;32.20;50.70;;;;;;4890053;29;20024;-72
2023/07/19 17:01:07;;;;;;;3.42;2.17;;;31.50;51.70;;;;;;4891997;29;20032;-72
2023/07/19 17:03:32;;;;;;;5.00;2.17;;;31.10;52.30;;;;;;4891581;29;20267;-74
2023/07/19 17:05:58;;;;;;;3.70;2.10;;;30.90;52.80;;;;;;4892097;29;20041;-71
2023/07/19 17:08:24;;;;;;;5.18;1.98;;;30.80;53.00;;;;;;4891740;29;20089;-72
2023/07/19 17:10:49;;;;;;;4.18;1.70;;;30.60;53.10;;;;;;4891794;29;20194;-72
2023/07/19 17:13:15;;;;;;;4.15;1.88;;;30.30;53.30;;;;;;4891069;29;20104;-71
2023/07/19 17:15:41;;;;;;;4.63;1.55;;;30.50;53.40;;;;;;4900623;29;20231;-72
2023/07/19 17:18:07;;;;;;;3.95;1.70;;;30.80;53.10;;;;;;4910296;29;20028;-72
2023/07/19 17:20:33;;;;;;;3.38;1.67;;;31.30;52.30;;;;;;4910054;29;20120;-71
2023/07/19 17:22:59;;;;;;;4.53;1.55;;;31.70;52.00;;;;;;4909325;29;20032;-76
2023/07/19 17:25:26;;;;;;;4.68;2.00;;;32.20;51.40;;;;;;4910087;29;20032;-75
2023/07/19 17:27:51;;;;;;;5.50;2.08;;;33.30;50.30;;;;;;4909754;29;20055;-73
2023/07/19 17:30:17;;;;;;;2.85;1.52;;;34.00;49.70;;;;;;4909330;29;20342;-73
2023/07/19 17:32:43;;;;;;;5.07;1.90;;;35.10;48.60;;;;;;4909061;29;20029;-73
2023/07/19 17:35:11;;;;;;;3.70;1.58;;;35.10;48.00;;;;;;4910585;29;20063;-76
2023/07/19 17:37:37;;;;;;;5.55;1.73;;;35.10;48.30;;;;;;4910149;29;20036;-73
2023/07/19 17:40:04;;;;;;;4.25;1.95;;;35.00;48.20;;;;;;4910056;29;20147;-73
2023/07/19 17:42:30;;;;;;;5.25;2.20;;;34.80;48.50;;;;;;4909561;29;20263;-72
2023/07/19 17:44:55;;;;;;;5.90;2.10;;;34.40;49.10;;;;;;4909645;29;20032;-75